sensor_id;sensor_type;location;lat;lon;timestamp;temperature;humidity
2130;DHT22;1071;52.544;13.374;2024-03-25T00:01:05;10.00;99.90
2130;DHT22;1071;52.544;13.374;2024-03-25T00:03:32;10.00;99.90
2130;DHT22;1071;52.544;13.374;2024-03-25T00:05:59;10.00;99.90
2130;DHT22;1071;52.544;13.374;2024-03-25T00:08:26;9.90;99.90
2130;DHT22;1071;52.544;13.374;2024-03-25T00:10:52;9.90;99.90
2130;DHT22;1071;52.544;13.374;2024-03-25T00:13:20;10.00;99.90
2130;DHT22;1071;52.544;13.374;2024-03-25T00:15:46;9.90;99.90
2130;DHT22;1071;52.544;13.374;2024-03-25T00:18:13;9.90;99.90
2130;DHT22;1071;52.544;13.374;2024-03-25T00:20:39;9.90;99.90
2130;DHT22;1071;52.544;13.374;2024-03-25T00:23:07;9.90;99.90
2130;DHT22;1071;52.544;13.374;2024-03-25T00:25:33;9.90;99.90
2130;DHT22;1071;52.544;13.374;2024-03-25T00:28:00;9.90;99.90
2130;DHT22;1071;52.544;13.374;2024-03-25T00:30:26;9.90;99.90
2130;DHT22;1071;52.544;13.374;2024-03-25T00:32:53;9.90;99.90
2130;DHT22;1071;52.544;13.374;2024-03-25T00:35:19;9.90;99.90
2130;DHT22;1071;52.544;13.374;2024-03-25T00:37:46;9.90;99.90
2130;DHT22;1071;52.544;13.374;2024-03-25T00:40:13;9.90;99.90
2130;DHT22;1071;52.544;13.374;2024-03-25T00:42:40;9.80;99.90
2130;DHT22;1071;52.544;13.374;2024-03-25T00:45:06;9.80;99.90
2130;DHT22;1071;52.544;13.374;2024-03-25T00:47:36;9.80;99.90
2130;DHT22;1071;52.544;13.374;2024-03-25T00:50:02;9.80;99.90
2130;DHT22;1071;52.544;13.374;2024-03-25T00:52:29;9.80;99.90
2130;DHT22;1071;52.544;13.374;2024-03-25T00:54:55;9.80;99.90
2130;DHT22;1071;52.544;13.374;2024-03-25T00:57:24;9.80;99.90
2130;DHT22;1071;52.544;13.374;2024-03-25T00:59:49;9.90;99.90
2130;DHT22;1071;52.544;13.374;2024-03-25T01:02:16;9.90;99.90
2130;DHT22;1071;52.544;13.374;2024-03-25T01:04:42;9.90;99.90
2130;DHT22;1071;52.544;13.374;2024-03-25T01:07:09;9.90;99.90
2130;DHT22;1071;52.544;13.374;2024-03-25T01:09:35;9.90;99.90
2130;DHT22;1071;52.544;13.374;2024-03-25T01:12:03;9.90;99.90
2130;DHT22;1071;52.544;13.374;2024-03-25T01:14:30;9.90;99.90
2130;DHT22;1071;52.544;13.374;2024-03-25T01:16:57;9.90;99.90
2130;DHT22;1071;52.544;13.374;2024-03-25T01:19:23;9.90;99.90
2130;DHT22;1071;52.544;13.374;2024-03-25T01:21:50;9.90;99.90
2130;DHT22;1071;52.544;13.374;2024-03-25T01:24:16;9.90;99.90
2130;DHT22;1071;52.544;13.374;2024-03-25T01:26:43;9.90;99.90
2130;DHT22;1071;52.544;13.374;2024-03-25T01:29:09;9.90;99.90
2130;DHT22;1071;52.544;13.374;2024-03-25T01:31:38;9.90;99.90
2130;DHT22;1071;52.544;13.374;2024-03-25T01:34:03;9.90;99.90
2130;DHT22;1071;52.544;13.374;2024-03-25T01:36:31;9.90;99.90
2130;DHT22;1071;52.544;13.374;2024-03-25T01:38:57;9.90;99.90
2130;DHT22;1071;52.544;13.374;2024-03-25T01:41:24;9.90;99.90
2130;DHT22;1071;52.544;13.374;2024-03-25T01:43:50;9.90;99.90
2130;DHT22;1071;52.544;13.374;2024-03-25T01:46:17;9.90;99.90
2130;DHT22;1071;52.544;13.374;2024-03-25T01:48:45;9.90;99.90
2130;DHT22;1071;52.544;13.374;2024-03-25T01:51:15;10.00;99.90
2130;DHT22;1071;52.544;13.374;2024-03-25T01:53:42;10.00;99.90
2130;DHT22;1071;52.544;13.374;2024-03-25T01:56:10;10.00;99.90
2130;DHT22;1071;52.544;13.374;2024-03-25T01:58:38;10.00;99.90
2130;DHT22;1071;52.544;13.374;2024-03-25T02:01:05;10.00;99.90
2130;DHT22;1071;52.544;13.374;2024-03-25T02:03:31;10.00;99.90
2130;DHT22;1071;52.544;13.374;2024-03-25T02:06:02;10.00;99.90
2130;DHT22;1071;52.544;13.374;2024-03-25T02:08:29;9.90;99.90
2130;DHT22;1071;52.544;13.374;2024-03-25T02:10:58;9.90;99.90
2130;DHT22;1071;52.544;13.374;2024-03-25T02:13:25;9.80;99.90
2130;DHT22;1071;52.544;13.374;2024-03-25T02:15:52;9.80;99.90
2130;DHT22;1071;52.544;13.374;2024-03-25T02:18:20;9.70;99.90
2130;DHT22;1071;52.544;13.374;2024-03-25T02:20:47;9.70;99.90
2130;DHT22;1071;52.544;13.374;2024-03-25T02:23:15;9.70;99.90
2130;DHT22;1071;52.544;13.374;2024-03-25T02:25:43;9.70;99.90
2130;DHT22;1071;52.544;13.374;2024-03-25T02:28:10;9.60;99.90
2130;DHT22;1071;52.544;13.374;2024-03-25T02:30:37;9.70;99.90
2130;DHT22;1071;52.544;13.374;2024-03-25T02:33:04;9.60;99.90
2130;DHT22;1071;52.544;13.374;2024-03-25T02:35:31;9.70;99.90
2130;DHT22;1071;52.544;13.374;2024-03-25T02:37:58;9.60;99.90
2130;DHT22;1071;52.544;13.374;2024-03-25T02:40:25;9.60;99.90
2130;DHT22;1071;52.544;13.374;2024-03-25T02:42:51;9.60;99.90
2130;DHT22;1071;52.544;13.374;2024-03-25T02:45:20;9.60;99.90
2130;DHT22;1071;52.544;13.374;2024-03-25T02:47:46;9.60;99.90
2130;DHT22;1071;52.544;13.374;2024-03-25T02:50:13;9.50;99.90
2130;DHT22;1071;52.544;13.374;2024-03-25T02:52:39;9.50;99.90
2130;DHT22;1071;52.544;13.374;2024-03-25T02:55:06;9.50;99.90
2130;DHT22;1071;52.544;13.374;2024-03-25T02:57:32;9.50;99.90
2130;DHT22;1071;52.544;13.374;2024-03-25T02:59:59;9.40;99.90
2130;DHT22;1071;52.544;13.374;2024-03-25T03:02:27;9.40;99.90
2130;DHT22;1071;52.544;13.374;2024-03-25T03:04:54;9.40;99.90
2130;DHT22;1071;52.544;13.374;2024-03-25T03:07:19;9.40;99.90
2130;DHT22;1071;52.544;13.374;2024-03-25T03:09:46;9.40;99.90
2130;DHT22;1071;52.544;13.374;2024-03-25T03:12:12;9.40;99.90
2130;DHT22;1071;52.544;13.374;2024-03-25T03:14:39;9.40;99.90
2130;DHT22;1071;52.544;13.374;2024-03-25T03:17:05;9.40;99.90
2130;DHT22;1071;52.544;13.374;2024-03-25T03:19:33;9.40;99.90
2130;DHT22;1071;52.544;13.374;2024-03-25T03:21:59;9.40;99.90
2130;DHT22;1071;52.544;13.374;2024-03-25T03:24:26;9.40;99.90
2130;DHT22;1071;52.544;13.374;2024-03-25T03:26:59;9.40;99.90
2130;DHT22;1071;52.544;13.374;2024-03-25T03:29:29;9.40;99.90
2130;DHT22;1071;52.544;13.374;2024-03-25T03:31:55;9.50;99.90
2130;DHT22;1071;52.544;13.374;2024-03-25T03:34:22;9.50;99.90
2130;DHT22;1071;52.544;13.374;2024-03-25T03:36:49;9.50;99.90
2130;DHT22;1071;52.544;13.374;2024-03-25T03:39:16;9.50;99.90
2130;DHT22;1071;52.544;13.374;2024-03-25T03:41:43;9.50;99.90
2130;DHT22;1071;52.544;13.374;2024-03-25T03:44:09;9.40;99.90
2130;DHT22;1071;52.544;13.374;2024-03-25T03:46:35;9.40;99.90
2130;DHT22;1071;52.544;13.374;2024-03-25T03:49:02;9.40;99.90
2130;DHT22;1071;52.544;13.374;2024-03-25T03:51:28;9.40;99.90
2130;DHT22;1071;52.544;13.374;2024-03-25T03:53:57;9.40;99.90
2130;DHT22;1071;52.544;13.374;2024-03-25T03:56:22;9.40;99.90
2130;DHT22;1071;52.544;13.374;2024-03-25T03:58:49;9.40;99.90
2130;DHT22;1071;52.544;13.374;2024-03-25T04:01:16;9.40;99.90
2130;DHT22;1071;52.544;13.374;2024-03-25T04:03:43;9.40;99.90
2130;DHT22;1071;52.544;13.374;2024-03-25T04:06:10;9.40;99.90
2130;DHT22;1071;52.544;13.374;2024-03-25T04:08:37;9.40;99.90
2130;DHT22;1071;52.544;13.374;2024-03-25T04:11:05;9.40;99.90
2130;DHT22;1071;52.544;13.374;2024-03-25T04:13:33;9.40;99.90
2130;DHT22;1071;52.544;13.374;2024-03-25T04:16:01;9.40;99.90
2130;DHT22;1071;52.544;13.374;2024-03-25T04:18:31;9.40;99.90
2130;DHT22;1071;52.544;13.374;2024-03-25T04:20:58;9.40;99.90
2130;DHT22;1071;52.544;13.374;2024-03-25T04:23:25;9.30;99.90
2130;DHT22;1071;52.544;13.374;2024-03-25T04:25:52;9.40;99.90
2130;DHT22;1071;52.544;13.374;2024-03-25T04:28:20;9.40;99.90
2130;DHT22;1071;52.544;13.374;2024-03-25T04:30:51;9.40;99.90
2130;DHT22;1071;52.544;13.374;2024-03-25T04:33:21;9.40;99.90
2130;DHT22;1071;52.544;13.374;2024-03-25T04:35:47;9.40;99.90
2130;DHT22;1071;52.544;13.374;2024-03-25T04:38:16;9.40;99.90
2130;DHT22;1071;52.544;13.374;2024-03-25T04:40:42;9.40;99.90
2130;DHT22;1071;52.544;13.374;2024-03-25T04:43:10;9.40;99.90
2130;DHT22;1071;52.544;13.374;2024-03-25T04:45:37;9.40;99.90
2130;DHT22;1071;52.544;13.374;2024-03-25T04:48:04;9.40;99.90
2130;DHT22;1071;52.544;13.374;2024-03-25T04:50:30;9.40;99.90
2130;DHT22;1071;52.544;13.374;2024-03-25T04:52:56;9.40;99.90
2130;DHT22;1071;52.544;13.374;2024-03-25T04:55:22;9.40;99.90
2130;DHT22;1071;52.544;13.374;2024-03-25T04:57:48;9.40;99.90
2130;DHT22;1071;52.544;13.374;2024-03-25T05:00:14;9.40;99.90
2130;DHT22;1071;52.544;13.374;2024-03-25T05:02:41;9.40;99.90
2130;DHT22;1071;52.544;13.374;2024-03-25T05:05:07;9.50;99.90
2130;DHT22;1071;52.544;13.374;2024-03-25T05:07:35;9.50;99.90
2130;DHT22;1071;52.544;13.374;2024-03-25T05:10:01;9.50;99.90
2130;DHT22;1071;52.544;13.374;2024-03-25T05:12:27;9.50;99.90
2130;DHT22;1071;52.544;13.374;2024-03-25T05:14:53;9.50;99.90
2130;DHT22;1071;52.544;13.374;2024-03-25T05:17:19;9.50;99.90
2130;DHT22;1071;52.544;13.374;2024-03-25T05:19:46;9.50;99.90
2130;DHT22;1071;52.544;13.374;2024-03-25T05:22:15;9.40;99.90
2130;DHT22;1071;52.544;13.374;2024-03-25T05:24:41;9.50;99.90
2130;DHT22;1071;52.544;13.374;2024-03-25T05:27:07;9.50;99.90
2130;DHT22;1071;52.544;13.374;2024-03-25T05:29:33;9.50;99.90
2130;DHT22;1071;52.544;13.374;2024-03-25T05:31:59;9.50;99.90
2130;DHT22;1071;52.544;13.374;2024-03-25T05:34:26;9.60;99.90
2130;DHT22;1071;52.544;13.374;2024-03-25T05:36:54;9.50;99.90
2130;DHT22;1071;52.544;13.374;2024-03-25T05:39:20;9.50;99.90
2130;DHT22;1071;52.544;13.374;2024-03-25T05:41:47;9.50;99.90
2130;DHT22;1071;52.544;13.374;2024-03-25T05:44:12;9.60;99.90
2130;DHT22;1071;52.544;13.374;2024-03-25T05:46:38;9.50;99.90
2130;DHT22;1071;52.544;13.374;2024-03-25T05:49:04;9.50;99.90
2130;DHT22;1071;52.544;13.374;2024-03-25T05:51:30;9.50;99.90
2130;DHT22;1071;52.544;13.374;2024-03-25T05:53:58;9.50;99.90
2130;DHT22;1071;52.544;13.374;2024-03-25T05:56:25;9.50;99.90
2130;DHT22;1071;52.544;13.374;2024-03-25T05:58:50;9.40;99.90
2130;DHT22;1071;52.544;13.374;2024-03-25T06:01:16;9.40;99.90
2130;DHT22;1071;52.544;13.374;2024-03-25T06:03:42;9.40;99.90
2130;DHT22;1071;52.544;13.374;2024-03-25T06:06:08;9.40;99.90
2130;DHT22;1071;52.544;13.374;2024-03-25T06:08:37;9.30;99.90
2130;DHT22;1071;52.544;13.374;2024-03-25T06:11:07;9.30;99.90
2130;DHT22;1071;52.544;13.374;2024-03-25T06:13:33;9.40;99.90
2130;DHT22;1071;52.544;13.374;2024-03-25T06:15:59;9.30;99.90
2130;DHT22;1071;52.544;13.374;2024-03-25T06:18:25;9.40;99.90
2130;DHT22;1071;52.544;13.374;2024-03-25T06:20:51;9.30;99.90
2130;DHT22;1071;52.544;13.374;2024-03-25T06:23:23;9.40;99.90
2130;DHT22;1071;52.544;13.374;2024-03-25T06:25:50;9.40;99.90
2130;DHT22;1071;52.544;13.374;2024-03-25T06:28:18;9.40;99.90
2130;DHT22;1071;52.544;13.374;2024-03-25T06:30:45;9.40;99.90
2130;DHT22;1071;52.544;13.374;2024-03-25T06:33:29;9.50;99.90
2130;DHT22;1071;52.544;13.374;2024-03-25T06:36:13;9.50;99.90
2130;DHT22;1071;52.544;13.374;2024-03-25T06:38:39;9.50;99.90
2130;DHT22;1071;52.544;13.374;2024-03-25T06:41:05;9.50;99.90
2130;DHT22;1071;52.544;13.374;2024-03-25T06:43:32;9.50;99.90
2130;DHT22;1071;52.544;13.374;2024-03-25T06:45:58;9.50;99.90
2130;DHT22;1071;52.544;13.374;2024-03-25T06:48:24;9.50;99.90
2130;DHT22;1071;52.544;13.374;2024-03-25T06:50:53;9.50;99.90
2130;DHT22;1071;52.544;13.374;2024-03-25T06:53:19;9.50;99.90
2130;DHT22;1071;52.544;13.374;2024-03-25T06:55:51;9.40;99.90
2130;DHT22;1071;52.544;13.374;2024-03-25T06:58:19;9.40;99.90
2130;DHT22;1071;52.544;13.374;2024-03-25T07:00:47;9.30;99.90
2130;DHT22;1071;52.544;13.374;2024-03-25T07:03:13;9.30;99.90
2130;DHT22;1071;52.544;13.374;2024-03-25T07:05:39;9.30;99.90
2130;DHT22;1071;52.544;13.374;2024-03-25T07:08:05;9.30;99.90
2130;DHT22;1071;52.544;13.374;2024-03-25T07:10:31;9.30;99.90
2130;DHT22;1071;52.544;13.374;2024-03-25T07:12:57;9.20;99.90
2130;DHT22;1071;52.544;13.374;2024-03-25T07:15:23;9.20;99.90
2130;DHT22;1071;52.544;13.374;2024-03-25T07:17:50;9.30;99.90
2130;DHT22;1071;52.544;13.374;2024-03-25T07:20:16;9.20;99.90
2130;DHT22;1071;52.544;13.374;2024-03-25T07:22:42;9.30;99.90
2130;DHT22;1071;52.544;13.374;2024-03-25T07:25:08;9.30;99.90
2130;DHT22;1071;52.544;13.374;2024-03-25T07:27:34;9.30;99.90
2130;DHT22;1071;52.544;13.374;2024-03-25T07:30:00;9.30;99.90
2130;DHT22;1071;52.544;13.374;2024-03-25T07:32:26;9.40;99.90
2130;DHT22;1071;52.544;13.374;2024-03-25T07:34:53;9.40;99.90
2130;DHT22;1071;52.544;13.374;2024-03-25T07:37:19;9.40;99.90
2130;DHT22;1071;52.544;13.374;2024-03-25T07:39:46;9.40;99.90
2130;DHT22;1071;52.544;13.374;2024-03-25T07:42:12;9.40;99.90
2130;DHT22;1071;52.544;13.374;2024-03-25T07:44:38;9.40;99.90
2130;DHT22;1071;52.544;13.374;2024-03-25T07:47:04;9.40;99.90
2130;DHT22;1071;52.544;13.374;2024-03-25T07:49:30;9.40;99.90
2130;DHT22;1071;52.544;13.374;2024-03-25T07:51:57;9.40;99.90
2130;DHT22;1071;52.544;13.374;2024-03-25T07:54:23;9.40;99.90
2130;DHT22;1071;52.544;13.374;2024-03-25T07:56:49;9.40;99.90
2130;DHT22;1071;52.544;13.374;2024-03-25T07:59:15;9.40;99.90
2130;DHT22;1071;52.544;13.374;2024-03-25T08:01:41;9.40;99.90
2130;DHT22;1071;52.544;13.374;2024-03-25T08:04:06;9.30;99.90
2130;DHT22;1071;52.544;13.374;2024-03-25T08:06:32;9.30;99.90
2130;DHT22;1071;52.544;13.374;2024-03-25T08:08:59;9.30;99.90
2130;DHT22;1071;52.544;13.374;2024-03-25T08:11:25;9.40;99.90
2130;DHT22;1071;52.544;13.374;2024-03-25T08:13:51;9.40;99.90
2130;DHT22;1071;52.544;13.374;2024-03-25T08:16:17;9.40;99.90
2130;DHT22;1071;52.544;13.374;2024-03-25T08:18:43;9.40;99.90
2130;DHT22;1071;52.544;13.374;2024-03-25T08:21:09;9.50;99.90
2130;DHT22;1071;52.544;13.374;2024-03-25T08:23:35;9.60;99.90
2130;DHT22;1071;52.544;13.374;2024-03-25T08:26:02;9.60;99.90
2130;DHT22;1071;52.544;13.374;2024-03-25T08:28:28;9.70;99.90
2130;DHT22;1071;52.544;13.374;2024-03-25T08:30:54;9.70;99.90
2130;DHT22;1071;52.544;13.374;2024-03-25T08:33:20;9.80;99.90
2130;DHT22;1071;52.544;13.374;2024-03-25T08:35:46;9.80;99.90
2130;DHT22;1071;52.544;13.374;2024-03-25T08:38:11;9.90;99.90
2130;DHT22;1071;52.544;13.374;2024-03-25T08:40:37;10.00;99.90
2130;DHT22;1071;52.544;13.374;2024-03-25T08:43:05;10.10;99.90
2130;DHT22;1071;52.544;13.374;2024-03-25T08:45:30;10.10;99.90
2130;DHT22;1071;52.544;13.374;2024-03-25T08:47:56;10.10;99.90
2130;DHT22;1071;52.544;13.374;2024-03-25T08:50:22;10.10;99.90
2130;DHT22;1071;52.544;13.374;2024-03-25T08:52:48;10.20;99.90
2130;DHT22;1071;52.544;13.374;2024-03-25T08:55:14;10.10;99.90
2130;DHT22;1071;52.544;13.374;2024-03-25T08:57:40;10.20;99.90
2130;DHT22;1071;52.544;13.374;2024-03-25T09:00:08;10.10;99.90
2130;DHT22;1071;52.544;13.374;2024-03-25T09:02:34;10.10;99.90
2130;DHT22;1071;52.544;13.374;2024-03-25T09:05:00;10.10;99.90
2130;DHT22;1071;52.544;13.374;2024-03-25T09:07:26;10.10;99.90
2130;DHT22;1071;52.544;13.374;2024-03-25T09:09:52;10.10;99.90
2130;DHT22;1071;52.544;13.374;2024-03-25T09:12:36;10.10;99.90
2130;DHT22;1071;52.544;13.374;2024-03-25T09:15:02;10.20;99.90
2130;DHT22;1071;52.544;13.374;2024-03-25T09:17:29;10.20;99.90
2130;DHT22;1071;52.544;13.374;2024-03-25T09:19:55;10.20;99.90
2130;DHT22;1071;52.544;13.374;2024-03-25T09:22:21;10.30;99.90
2130;DHT22;1071;52.544;13.374;2024-03-25T09:24:47;10.30;99.90
2130;DHT22;1071;52.544;13.374;2024-03-25T09:27:13;10.40;99.90
2130;DHT22;1071;52.544;13.374;2024-03-25T09:29:39;10.40;99.90
2130;DHT22;1071;52.544;13.374;2024-03-25T09:32:05;10.40;99.90
2130;DHT22;1071;52.544;13.374;2024-03-25T09:34:33;10.40;99.90
2130;DHT22;1071;52.544;13.374;2024-03-25T09:36:59;10.40;99.90
2130;DHT22;1071;52.544;13.374;2024-03-25T09:39:25;10.40;99.90
2130;DHT22;1071;52.544;13.374;2024-03-25T09:41:51;10.40;99.90
2130;DHT22;1071;52.544;13.374;2024-03-25T09:44:22;10.40;99.90
2130;DHT22;1071;52.544;13.374;2024-03-25T09:46:50;10.40;99.90
2130;DHT22;1071;52.544;13.374;2024-03-25T09:49:16;10.40;99.90
2130;DHT22;1071;52.544;13.374;2024-03-25T09:51:44;10.50;99.90
2130;DHT22;1071;52.544;13.374;2024-03-25T09:54:09;10.40;99.90
2130;DHT22;1071;52.544;13.374;2024-03-25T09:56:36;10.40;99.90
2130;DHT22;1071;52.544;13.374;2024-03-25T09:59:03;10.50;99.90
2130;DHT22;1071;52.544;13.374;2024-03-25T10:01:29;10.60;99.90
2130;DHT22;1071;52.544;13.374;2024-03-25T10:03:55;10.60;99.90
2130;DHT22;1071;52.544;13.374;2024-03-25T10:06:21;10.70;99.90
2130;DHT22;1071;52.544;13.374;2024-03-25T10:08:48;10.80;99.90
2130;DHT22;1071;52.544;13.374;2024-03-25T10:11:15;10.80;99.90
2130;DHT22;1071;52.544;13.374;2024-03-25T10:13:41;10.80;99.90
2130;DHT22;1071;52.544;13.374;2024-03-25T10:16:07;10.90;99.90
2130;DHT22;1071;52.544;13.374;2024-03-25T10:18:33;10.90;99.90
2130;DHT22;1071;52.544;13.374;2024-03-25T10:20:59;10.90;99.90
2130;DHT22;1071;52.544;13.374;2024-03-25T10:23:25;10.90;99.90
2130;DHT22;1071;52.544;13.374;2024-03-25T10:25:53;10.90;99.90
2130;DHT22;1071;52.544;13.374;2024-03-25T10:28:19;10.90;99.90
2130;DHT22;1071;52.544;13.374;2024-03-25T10:30:45;10.90;99.90
2130;DHT22;1071;52.544;13.374;2024-03-25T10:33:11;11.00;99.90
2130;DHT22;1071;52.544;13.374;2024-03-25T10:35:39;10.90;99.90
2130;DHT22;1071;52.544;13.374;2024-03-25T10:38:05;11.00;99.90
2130;DHT22;1071;52.544;13.374;2024-03-25T10:40:33;11.00;99.90
2130;DHT22;1071;52.544;13.374;2024-03-25T10:43:03;11.10;99.90
2130;DHT22;1071;52.544;13.374;2024-03-25T10:45:30;11.10;99.90
2130;DHT22;1071;52.544;13.374;2024-03-25T10:47:57;11.10;99.90
2130;DHT22;1071;52.544;13.374;2024-03-25T10:50:28;11.10;99.90
2130;DHT22;1071;52.544;13.374;2024-03-25T10:52:57;11.20;99.90
2130;DHT22;1071;52.544;13.374;2024-03-25T10:55:24;11.30;99.90
2130;DHT22;1071;52.544;13.374;2024-03-25T10:57:52;11.50;99.90
2130;DHT22;1071;52.544;13.374;2024-03-25T11:00:22;11.50;99.90
2130;DHT22;1071;52.544;13.374;2024-03-25T11:02:49;11.70;99.90
2130;DHT22;1071;52.544;13.374;2024-03-25T11:05:15;11.80;99.90
2130;DHT22;1071;52.544;13.374;2024-03-25T11:07:41;11.80;99.90
2130;DHT22;1071;52.544;13.374;2024-03-25T11:10:08;11.80;99.90
2130;DHT22;1071;52.544;13.374;2024-03-25T11:12:35;11.90;99.90
2130;DHT22;1071;52.544;13.374;2024-03-25T11:15:01;11.80;99.90
2130;DHT22;1071;52.544;13.374;2024-03-25T11:17:30;11.90;99.90
2130;DHT22;1071;52.544;13.374;2024-03-25T11:20:06;11.90;99.90
2130;DHT22;1071;52.544;13.374;2024-03-25T11:22:33;12.00;99.90
2130;DHT22;1071;52.544;13.374;2024-03-25T11:25:06;12.00;99.90
2130;DHT22;1071;52.544;13.374;2024-03-25T11:27:35;12.10;99.90
2130;DHT22;1071;52.544;13.374;2024-03-25T11:30:01;12.10;99.90
2130;DHT22;1071;52.544;13.374;2024-03-25T11:32:27;12.20;99.90
2130;DHT22;1071;52.544;13.374;2024-03-25T11:34:55;12.20;99.90
2130;DHT22;1071;52.544;13.374;2024-03-25T11:37:20;12.20;99.90
2130;DHT22;1071;52.544;13.374;2024-03-25T11:39:46;12.20;99.90
2130;DHT22;1071;52.544;13.374;2024-03-25T11:42:13;12.20;99.90
2130;DHT22;1071;52.544;13.374;2024-03-25T11:44:39;12.20;99.90
2130;DHT22;1071;52.544;13.374;2024-03-25T11:47:05;12.20;99.90
2130;DHT22;1071;52.544;13.374;2024-03-25T11:49:32;12.20;99.90
2130;DHT22;1071;52.544;13.374;2024-03-25T11:52:00;12.20;99.90
2130;DHT22;1071;52.544;13.374;2024-03-25T11:54:27;12.20;99.90
2130;DHT22;1071;52.544;13.374;2024-03-25T11:56:54;12.30;99.90
2130;DHT22;1071;52.544;13.374;2024-03-25T11:59:20;12.30;99.90
2130;DHT22;1071;52.544;13.374;2024-03-25T12:01:46;12.40;99.90
2130;DHT22;1071;52.544;13.374;2024-03-25T12:04:15;12.40;99.90
2130;DHT22;1071;52.544;13.374;2024-03-25T12:06:41;12.40;99.90
2130;DHT22;1071;52.544;13.374;2024-03-25T12:09:09;12.50;99.90
2130;DHT22;1071;52.544;13.374;2024-03-25T12:11:54;12.50;99.90
2130;DHT22;1071;52.544;13.374;2024-03-25T12:14:20;12.60;99.90
2130;DHT22;1071;52.544;13.374;2024-03-25T12:16:46;12.60;99.90
2130;DHT22;1071;52.544;13.374;2024-03-25T12:19:12;12.60;99.90
2130;DHT22;1071;52.544;13.374;2024-03-25T12:21:37;12.50;99.90
2130;DHT22;1071;52.544;13.374;2024-03-25T12:24:04;12.50;99.90
2130;DHT22;1071;52.544;13.374;2024-03-25T12:26:32;12.50;99.90
2130;DHT22;1071;52.544;13.374;2024-03-25T12:28:58;12.50;99.90
2130;DHT22;1071;52.544;13.374;2024-03-25T12:31:24;12.50;99.90
2130;DHT22;1071;52.544;13.374;2024-03-25T12:33:50;12.50;99.90
2130;DHT22;1071;52.544;13.374;2024-03-25T12:36:15;12.50;99.90
2130;DHT22;1071;52.544;13.374;2024-03-25T12:38:41;12.50;99.90
2130;DHT22;1071;52.544;13.374;2024-03-25T12:41:08;12.50;99.90
2130;DHT22;1071;52.544;13.374;2024-03-25T12:43:44;12.50;99.90
2130;DHT22;1071;52.544;13.374;2024-03-25T12:46:11;12.50;99.90
2130;DHT22;1071;52.544;13.374;2024-03-25T12:48:37;12.50;99.90
2130;DHT22;1071;52.544;13.374;2024-03-25T12:51:03;12.50;99.90
2130;DHT22;1071;52.544;13.374;2024-03-25T12:53:29;12.50;99.90
2130;DHT22;1071;52.544;13.374;2024-03-25T12:55:55;12.60;99.90
2130;DHT22;1071;52.544;13.374;2024-03-25T12:58:21;12.60;99.90
2130;DHT22;1071;52.544;13.374;2024-03-25T13:00:48;12.70;99.90
2130;DHT22;1071;52.544;13.374;2024-03-25T13:03:14;12.70;99.90
2130;DHT22;1071;52.544;13.374;2024-03-25T13:05:43;12.70;99.90
2130;DHT22;1071;52.544;13.374;2024-03-25T13:08:09;12.80;99.90
2130;DHT22;1071;52.544;13.374;2024-03-25T13:10:35;12.80;99.90
2130;DHT22;1071;52.544;13.374;2024-03-25T13:13:02;12.70;99.90
2130;DHT22;1071;52.544;13.374;2024-03-25T13:15:28;12.80;99.90
2130;DHT22;1071;52.544;13.374;2024-03-25T13:17:55;12.80;99.90
2130;DHT22;1071;52.544;13.374;2024-03-25T13:20:21;12.80;99.90
2130;DHT22;1071;52.544;13.374;2024-03-25T13:22:48;12.90;99.90
2130;DHT22;1071;52.544;13.374;2024-03-25T13:25:15;12.90;99.90
2130;DHT22;1071;52.544;13.374;2024-03-25T13:27:41;12.90;99.90
2130;DHT22;1071;52.544;13.374;2024-03-25T13:30:07;12.90;99.90
2130;DHT22;1071;52.544;13.374;2024-03-25T13:32:33;12.90;99.90
2130;DHT22;1071;52.544;13.374;2024-03-25T13:35:00;13.00;99.90
2130;DHT22;1071;52.544;13.374;2024-03-25T13:37:26;13.00;99.90
2130;DHT22;1071;52.544;13.374;2024-03-25T13:39:52;13.00;99.90
2130;DHT22;1071;52.544;13.374;2024-03-25T13:42:18;13.00;99.90
2130;DHT22;1071;52.544;13.374;2024-03-25T13:44:44;13.00;99.90
2130;DHT22;1071;52.544;13.374;2024-03-25T13:47:10;13.10;99.90
2130;DHT22;1071;52.544;13.374;2024-03-25T13:49:36;13.10;99.90
2130;DHT22;1071;52.544;13.374;2024-03-25T13:52:03;13.10;99.90
2130;DHT22;1071;52.544;13.374;2024-03-25T13:54:34;13.10;99.90
2130;DHT22;1071;52.544;13.374;2024-03-25T13:56:59;13.10;99.90
2130;DHT22;1071;52.544;13.374;2024-03-25T13:59:26;13.10;99.90
2130;DHT22;1071;52.544;13.374;2024-03-25T14:01:52;13.10;99.90
2130;DHT22;1071;52.544;13.374;2024-03-25T14:04:17;13.20;99.90
2130;DHT22;1071;52.544;13.374;2024-03-25T14:06:43;13.20;99.90
2130;DHT22;1071;52.544;13.374;2024-03-25T14:09:22;13.20;99.90
2130;DHT22;1071;52.544;13.374;2024-03-25T14:11:48;13.20;99.90
2130;DHT22;1071;52.544;13.374;2024-03-25T14:14:14;13.20;99.90
2130;DHT22;1071;52.544;13.374;2024-03-25T14:16:40;13.20;99.90
2130;DHT22;1071;52.544;13.374;2024-03-25T14:19:06;13.10;99.90
2130;DHT22;1071;52.544;13.374;2024-03-25T14:21:32;13.10;99.90
2130;DHT22;1071;52.544;13.374;2024-03-25T14:23:57;13.20;99.90
2130;DHT22;1071;52.544;13.374;2024-03-25T14:26:25;13.20;99.90
2130;DHT22;1071;52.544;13.374;2024-03-25T14:28:50;13.20;99.90
2130;DHT22;1071;52.544;13.374;2024-03-25T14:31:16;13.30;99.90
2130;DHT22;1071;52.544;13.374;2024-03-25T14:33:42;13.30;99.90
2130;DHT22;1071;52.544;13.374;2024-03-25T14:36:08;13.40;99.90
2130;DHT22;1071;52.544;13.374;2024-03-25T14:38:34;13.40;99.90
2130;DHT22;1071;52.544;13.374;2024-03-25T14:41:00;13.40;99.90
2130;DHT22;1071;52.544;13.374;2024-03-25T14:43:27;13.40;99.90
2130;DHT22;1071;52.544;13.374;2024-03-25T14:45:53;13.40;99.90
2130;DHT22;1071;52.544;13.374;2024-03-25T14:48:19;13.30;99.90
2130;DHT22;1071;52.544;13.374;2024-03-25T14:50:44;13.30;99.90
2130;DHT22;1071;52.544;13.374;2024-03-25T14:53:10;13.30;99.90
2130;DHT22;1071;52.544;13.374;2024-03-25T14:55:36;13.20;99.90
2130;DHT22;1071;52.544;13.374;2024-03-25T14:58:02;13.20;99.90
2130;DHT22;1071;52.544;13.374;2024-03-25T15:00:29;13.10;99.90
2130;DHT22;1071;52.544;13.374;2024-03-25T15:02:55;13.10;99.90
2130;DHT22;1071;52.544;13.374;2024-03-25T15:05:21;13.10;99.90
2130;DHT22;1071;52.544;13.374;2024-03-25T15:07:47;13.10;99.90
2130;DHT22;1071;52.544;13.374;2024-03-25T15:10:13;13.10;99.90
2130;DHT22;1071;52.544;13.374;2024-03-25T15:12:39;13.00;99.90
2130;DHT22;1071;52.544;13.374;2024-03-25T15:15:06;13.10;99.90
2130;DHT22;1071;52.544;13.374;2024-03-25T15:17:33;13.10;99.90
2130;DHT22;1071;52.544;13.374;2024-03-25T15:19:59;13.10;99.90
2130;DHT22;1071;52.544;13.374;2024-03-25T15:22:25;13.00;99.90
2130;DHT22;1071;52.544;13.374;2024-03-25T15:24:51;13.00;99.90
2130;DHT22;1071;52.544;13.374;2024-03-25T15:27:17;13.00;99.90
2130;DHT22;1071;52.544;13.374;2024-03-25T15:29:43;12.90;99.90
2130;DHT22;1071;52.544;13.374;2024-03-25T15:32:11;12.80;99.90
2130;DHT22;1071;52.544;13.374;2024-03-25T15:34:39;12.70;99.90
2130;DHT22;1071;52.544;13.374;2024-03-25T15:37:05;12.60;99.90
2130;DHT22;1071;52.544;13.374;2024-03-25T15:39:31;12.60;99.90
2130;DHT22;1071;52.544;13.374;2024-03-25T15:41:56;12.50;99.90
2130;DHT22;1071;52.544;13.374;2024-03-25T15:44:22;12.50;99.90
2130;DHT22;1071;52.544;13.374;2024-03-25T15:46:48;12.40;99.90
2130;DHT22;1071;52.544;13.374;2024-03-25T15:49:14;12.40;99.90
2130;DHT22;1071;52.544;13.374;2024-03-25T15:51:42;12.30;99.90